Latest Weather Observations for Hartz Mountains

IDT60801

Issued at 10:32 pm EST Sunday 30 April 2017 (issued every 30 minutes, with the page automatically refreshed every 10 minutes)

About weather observations | Map of weather stations | Latest weather observations for TAS | Other Formats
Station Details ID: 094191 Name: HARTZ MOUNTAIN (KEOGHS PIMPLE) Lat: -43.20 Lon: 146.77 Height: 831.0 m
Data from the previous 72 hours. | See also: Recent months at Hartz Mountains
Date/Time
EST
Temp
°C
App
Temp
°C
Dew
Point
°C
Rel
Hum
%
Delta-T
°C
Wind Press
QNH
hPa
Press
MSL
hPa
Rain since
9am
mm
Dir  Spd
km/h
Gust
km/h
Spd
kts
Gust
kts
30/10:30pm 7.1 -2.5 4.6 84 1.1 WNW 44 63 24 34 - - 0.2
30/10:00pm 6.9 -0.9 4.9 87 0.9 W 35 56 19 30 - - 0.2
30/09:49pm 7.1 0.7 5.4 89 0.8 W 28 50 15 27 - - 0.2
30/09:38pm 7.0 0.6 5.3 89 0.8 W 28 46 15 25 - - 0.2
30/09:30pm 7.1 -1.4 5.3 88 0.8 WNW 39 61 21 33 - - 0.2
30/09:18pm 7.2 -0.5 5.5 89 0.8 WNW 35 57 19 31 - - 0.2
30/09:00pm 7.1 -1.3 5.4 89 0.8 WNW 39 50 21 27 - - 0.2
30/08:34pm 6.9 -0.5 5.2 89 0.8 WNW 33 56 18 30 - - 0.2
30/08:30pm 6.8 -0.3 5.3 90 0.7 WNW 32 48 17 26 - - 0.2
30/08:08pm 7.1 0.7 5.3 88 0.8 WNW 28 50 15 27 - - 0.2
30/08:00pm 7.1 1.8 5.1 87 0.9 WNW 22 39 12 21 - - 0.2
30/07:30pm 7.4 2.6 5.5 88 0.9 WSW 20 30 11 16 - - 0.2
30/07:00pm 7.2 2.0 5.3 88 0.9 WSW 22 32 12 17 - - 0.2
30/06:30pm 7.2 0.8 5.3 88 0.9 WSW 28 35 15 19 - - 0.2
30/06:00pm 7.6 1.6 5.1 84 1.2 WSW 26 48 14 26 - - 0.2
30/05:54pm 7.8 1.0 5.3 84 1.2 WSW 30 48 16 26 - - 0.2
30/05:30pm 7.5 -0.9 5.5 87 0.9 WSW 39 44 21 24 - - 0.2
30/05:00pm 8.1 0.5 5.6 84 1.2 WSW 35 39 19 21 - - 0.2
30/04:30pm 9.2 2.5 5.8 79 1.6 W 30 39 16 21 - - 0.2
30/04:00pm 10.2 4.1 5.0 70 2.5 W 26 39 14 21 - - 0.2
30/03:30pm 11.0 6.2 5.5 69 2.7 W 20 35 11 19 - - 0.2
30/03:00pm 11.1 6.4 6.0 71 2.5 WSW 20 35 11 19 - - 0.2
30/02:30pm 11.2 6.2 6.3 72 2.4 W 22 30 12 16 - - 0.2
30/02:00pm 11.4 5.7 6.7 73 2.3 W 26 35 14 19 - - 0.2
30/01:30pm 10.9 5.6 6.8 76 2.0 W 24 37 13 20 - - 0.2
30/01:00pm 10.1 4.3 6.3 77 1.9 W 26 33 14 18 - - 0.2
30/12:30pm 9.2 2.2 5.8 79 1.6 W 32 43 17 23 - - 0.2
30/12:00pm 9.3 3.2 6.4 82 1.4 W 28 39 15 21 - - 0.2
30/11:30am 9.1 3.7 6.2 82 1.4 W 24 35 13 19 - - 0.0
30/11:00am 8.2 1.9 5.7 84 1.2 W 28 37 15 20 - - 0.0
30/10:30am 8.2 2.7 5.7 84 1.2 W 24 35 13 19 - - 0.0
30/10:00am 7.8 1.5 5.6 86 1.0 W 28 35 15 19 - - 0.0
30/09:30am 7.6 1.1 4.9 83 1.3 W 28 35 15 19 - - 0.0
30/09:00am 7.6 1.5 4.9 83 1.3 W 26 39 14 21 - - 0.0
30/08:30am 8.2 2.6 3.7 73 2.0 W 22 30 12 16 - - 0.0
30/08:00am 7.4 1.1 3.8 78 1.6 W 26 35 14 19 - - 0.0
30/07:30am 6.7 0.0 3.7 81 1.3 W 28 37 15 20 - - 0.0
30/07:00am 6.4 -1.2 3.9 84 1.1 W 33 43 18 23 - - 0.0
30/06:30am 6.0 -1.4 4.0 87 0.9 W 32 43 17 23 - - 0.0
30/06:00am 6.2 -1.3 3.7 84 1.1 W 32 44 17 24 - - 0.0
30/05:30am 5.7 -1.6 2.7 81 1.3 W 30 37 16 20 - - 0.0
30/05:00am 5.2 -1.1 1.3 76 1.6 W 24 30 13 16 - - 0.0
30/04:30am 6.1 0.5 0.2 66 2.4 W 19 26 10 14 - - 0.0
30/04:00am 5.7 -0.1 -0.1 66 2.3 W 20 33 11 18 - - 0.0
30/03:30am 5.4 -0.9 1.3 75 1.7 W 24 35 13 19 - - 0.0
30/03:00am 4.5 -1.7 1.9 83 1.1 W 24 30 13 16 - - 0.0
30/02:30am 5.8 0.1 0.6 69 2.1 W 20 24 11 13 - - 0.0
30/02:00am 4.7 -1.5 2.1 83 1.1 W 24 28 13 15 - - 0.0
30/01:30am 4.6 -0.2 2.8 88 0.8 W 17 24 9 13 - - 0.0
30/01:00am 4.4 -1.1 4.0 97 0.2 WNW 22 30 12 16 - - 0.0
30/12:30am 4.1 -1.1 3.8 98 0.1 WNW 20 26 11 14 - - 0.0
30/12:00am 4.1 1.0 3.5 96 0.3 NW 9 15 5 8 - - 0.0
 
Date/Time
EST
Temp
°C
App
Temp
°C
Dew
Point
°C
Rel
Hum
%
Delta-T
°C
Wind Press
QNH
hPa
Press
MSL
hPa
Rain since
9am
mm
Dir  Spd
km/h
Gust
km/h
Spd
kts
Gust
kts
29/11:30pm 4.3 0.5 4.0 98 0.1 W 13 19 7 10 - - 0.0
29/11:00pm 4.3 -0.6 3.9 97 0.2 W 19 24 10 13 - - 0.0
29/10:30pm 4.8 1.1 4.2 96 0.3 WSW 13 22 7 12 - - 0.0
29/10:00pm 4.8 2.4 4.5 98 0.1 SW 6 15 3 8 - - 0.0
29/09:30pm 4.9 2.0 4.5 97 0.2 W 9 15 5 8 - - 0.0
29/09:00pm 5.2 1.9 4.8 97 0.2 W 11 19 6 10 - - 0.0
29/08:30pm 5.2 1.5 4.6 96 0.3 WSW 13 19 7 10 - - 0.0
29/08:00pm 5.0 3.4 4.4 96 0.3 W 2 9 1 5 - - 0.0
29/07:30pm 5.2 2.7 4.8 97 0.2 SSW 7 15 4 8 - - 0.0
29/07:00pm 5.3 1.6 4.7 96 0.3 SW 13 24 7 13 - - 0.0
29/06:30pm 5.7 1.0 5.1 96 0.3 SW 19 28 10 15 - - 0.0
29/06:00pm 5.8 2.6 5.1 95 0.3 SW 11 24 6 13 - - 0.0
29/05:30pm 6.2 2.0 5.5 95 0.3 SW 17 26 9 14 - - 0.0
29/05:00pm 6.3 0.7 5.6 95 0.3 WSW 24 32 13 17 - - 0.0
29/04:30pm 6.7 2.0 6.0 95 0.3 W 20 32 11 17 - - 0.0
29/04:00pm 7.0 2.9 6.3 95 0.3 WSW 17 30 9 16 - - 0.0
29/03:30pm 7.1 2.0 6.2 94 0.4 WSW 22 33 12 18 - - 0.0
29/03:00pm 7.6 1.8 6.4 92 0.6 WSW 26 44 14 24 - - 0.0
29/02:30pm 8.4 3.5 7.0 91 0.7 WSW 22 33 12 18 - - 0.0
29/02:13pm 8.5 1.8 7.4 93 0.5 WSW 32 50 17 27 - - 0.0
29/02:00pm 8.1 0.8 7.2 94 0.4 WSW 35 52 19 28 - - 0.0
29/01:55pm 8.0 1.1 7.2 95 0.4 WSW 33 52 18 28 - - 0.0
29/01:30pm 7.7 1.3 7.1 96 0.3 WSW 30 44 16 24 - - 0.0
29/01:00pm 7.5 2.2 6.9 96 0.3 WSW 24 35 13 19 - - 0.0
29/12:30pm 7.4 0.6 6.8 96 0.3 WSW 32 44 17 24 - - 0.0
29/12:00pm 7.1 0.3 6.7 97 0.2 WSW 32 44 17 24 - - 0.0
29/11:30am 6.9 -0.5 6.6 98 0.1 WSW 35 44 19 24 - - 0.0
29/11:00am 6.7 -1.1 6.6 99 0.0 WSW 37 48 20 26 - - 0.0
29/10:40am 6.4 -1.1 6.3 99 0.0 WSW 35 54 19 29 - - 0.0
29/10:30am 6.4 -0.5 6.3 99 0.0 WSW 32 43 17 23 - - 0.0
29/10:00am 6.3 -0.7 6.2 99 0.0 WSW 32 50 17 27 - - 0.0
29/09:38am 6.1 -0.5 6.0 99 0.0 WSW 30 52 16 28 - - 0.0
29/09:30am 6.3 -0.3 6.2 99 0.0 WSW 30 48 16 26 - - 0.0
29/09:02am 6.3 -2.7 6.2 99 0.0 WSW 43 61 23 33 - - 0.0
29/09:00am 6.2 -3.1 6.1 99 0.0 WSW 44 61 24 33 - - 1.4
29/08:30am 5.9 -4.6 5.8 99 0.0 WSW 50 61 27 33 - - 1.4
29/08:00am 5.7 -5.6 5.6 99 0.0 WSW 54 70 29 38 - - 1.4
29/07:30am 5.6 -6.7 5.3 98 0.1 WSW 59 72 32 39 - - 1.4
29/07:00am 5.7 -6.0 5.4 98 0.1 WSW 56 80 30 43 - - 1.4
29/06:35am 6.1 -5.5 5.8 98 0.1 WSW 56 80 30 43 - - 1.4
29/06:30am 6.3 -5.4 6.0 98 0.1 WSW 57 70 31 38 - - 1.4
29/06:01am 6.1 -2.6 5.8 98 0.1 WSW 41 59 22 32 - - 1.4
29/06:00am 6.1 -2.6 5.8 98 0.1 WSW 41 54 22 29 - - 1.4
29/05:30am 6.0 -4.1 5.9 99 0.0 WSW 48 65 26 35 - - 1.2
29/05:20am 6.0 -5.2 5.9 99 0.0 WSW 54 72 29 39 - - 1.2
29/05:11am 6.2 -3.8 6.1 99 0.0 WSW 48 76 26 41 - - 1.2
29/05:04am 6.3 -2.0 6.2 99 0.0 WSW 39 69 21 37 - - 1.2
29/05:00am 6.3 -1.6 6.2 99 0.0 WSW 37 50 20 27 - - 1.2
29/04:30am 6.2 -0.8 6.1 99 0.0 WSW 32 48 17 26 - - 1.2
29/04:00am 6.0 -1.6 5.9 99 0.0 W 35 63 19 34 - - 1.2
29/03:35am 6.4 0.2 6.3 99 0.0 W 28 76 15 41 - - 1.0
29/03:30am 6.4 1.0 6.3 99 0.0 W 24 43 13 23 - - 1.0
29/03:00am 6.4 0.6 6.1 98 0.1 WNW 26 46 14 25 - - 1.0
29/02:52am 6.4 0.2 6.1 98 0.1 WNW 28 46 15 25 - - 1.0
29/02:30am 6.4 2.7 6.1 98 0.1 W 15 35 8 19 - - 0.8
29/02:00am 6.4 0.9 6.1 98 0.1 W 24 46 13 25 - - 0.8
29/01:32am 6.3 -0.3 5.9 97 0.2 W 30 50 16 27 - - 0.8
29/01:30am 6.3 -0.3 6.0 98 0.1 W 30 50 16 27 - - 0.8
29/01:09am 6.4 -0.8 6.1 98 0.1 WSW 33 70 18 38 - - 0.8
29/01:02am 6.8 0.7 6.7 99 0.0 W 28 52 15 28 - - 0.8
29/01:00am 6.9 1.2 6.8 99 0.0 W 26 52 14 28 - - 0.8
29/12:43am 7.1 1.1 7.0 99 0.0 W 28 48 15 26 - - 0.6
29/12:30am 7.5 2.7 7.4 99 0.0 W 22 41 12 22 - - 0.6
29/12:00am 7.8 2.3 7.7 99 0.0 W 26 48 14 26 - - 0.6
 
Date/Time
EST
Temp
°C
App
Temp
°C
Dew
Point
°C
Rel
Hum
%
Delta-T
°C
Wind Press
QNH
hPa
Press
MSL
hPa
Rain since
9am
mm
Dir  Spd
km/h
Gust
km/h
Spd
kts
Gust
kts
28/11:30pm 8.1 3.1 8.0 99 0.0 W 24 43 13 23 - - 0.4
28/11:00pm 8.0 -0.3 7.9 99 0.0 WNW 41 70 22 38 - - 0.4
28/10:30pm 8.0 -1.6 7.9 99 0.0 WNW 48 74 26 40 - - 0.2
28/10:00pm 8.1 -1.5 8.0 99 0.0 WNW 48 74 26 40 - - 0.2
28/09:30pm 7.9 -0.4 7.8 99 0.0 W 41 72 22 39 - - 0.2
28/09:00pm 8.1 -1.9 8.0 99 0.0 WNW 50 83 27 45 - - 0.2
28/08:30pm 8.1 -1.1 8.0 99 0.0 WNW 46 80 25 43 - - 0.2
28/08:12pm 8.2 0.0 8.1 99 0.1 W 41 78 22 42 - - 0.0
28/08:02pm 8.3 1.2 8.2 99 0.1 WNW 35 54 19 29 - - 0.0
28/08:00pm 8.3 0.9 8.2 99 0.1 WNW 37 54 20 29 - - 0.0
28/07:30pm 8.3 -0.9 8.2 99 0.1 W 46 70 25 38 - - 0.0
28/07:00pm 8.2 -1.4 8.1 99 0.1 WNW 48 69 26 37 - - 0.0
28/06:30pm 8.1 -0.5 8.0 99 0.0 WNW 43 69 23 37 - - 0.0
28/06:00pm 7.9 -1.4 7.6 98 0.1 WNW 46 69 25 37 - - 0.0
28/05:30pm 7.8 -1.9 7.5 98 0.1 W 48 69 26 37 - - 0.0
28/05:00pm 7.5 -1.0 7.1 97 0.2 WNW 41 63 22 34 - - 0.0
28/04:30pm 7.5 -1.4 6.8 95 0.3 WNW 43 69 23 37 - - 0.0
28/04:00pm 7.7 -0.9 6.3 91 0.7 WNW 41 59 22 32 - - 0.0
28/03:30pm 7.6 -3.2 5.9 89 0.8 W 52 70 28 38 - - 0.0
28/03:00pm 7.8 -4.0 5.6 86 1.0 W 57 87 31 47 - - 0.0
28/02:30pm 8.5 -3.1 6.0 84 1.2 W 56 80 30 43 - - 0.0
28/02:00pm 8.3 -3.4 6.1 86 1.1 W 57 82 31 44 - - 0.0
28/01:30pm 8.9 -4.4 5.8 81 1.5 W 65 100 35 54 - - 0.0
28/01:13pm 8.9 -4.0 6.0 82 1.4 W 63 89 34 48 - - 0.0
28/01:12pm 8.9 -4.4 5.8 81 1.5 W 65 89 35 48 - - 0.0
28/01:00pm 8.8 -2.2 6.8 87 1.0 W 54 78 29 42 - - 0.0
28/12:30pm 8.1 -2.1 6.9 92 0.6 W 50 91 27 49 - - 0.0
28/12:28pm 8.1 -1.3 7.0 93 0.5 W 46 91 25 49 - - 0.0
28/12:00pm 8.5 -2.0 7.3 92 0.6 W 52 72 28 39 - - 0.0
28/11:30am 8.3 -2.7 6.8 90 0.7 W 54 87 29 47 - - 0.0
28/11:00am 8.0 -1.1 6.1 88 0.9 W 43 78 23 42 - - 0.0
28/10:30am 7.3 -2.0 5.8 90 0.7 WNW 44 69 24 37 - - 0.0
28/10:28am 7.2 -1.9 5.8 91 0.7 W 43 61 23 33 - - 0.0
28/10:00am 6.8 -2.0 5.6 92 0.6 WNW 41 56 22 30 - - 0.0
28/09:34am 6.8 -2.9 5.6 92 0.6 WNW 46 65 25 35 - - 0.0
28/09:30am 6.7 -3.1 5.5 92 0.6 WNW 46 61 25 33 - - 0.0
28/09:00am 6.5 -2.7 5.6 94 0.4 W 43 59 23 32 - - 1.4
28/08:30am 6.5 -2.9 5.6 94 0.4 W 44 57 24 31 - - 1.4
28/08:14am 6.7 -2.6 6.0 95 0.3 W 44 65 24 35 - - 1.4
28/08:00am 6.4 -2.9 6.0 97 0.2 W 44 59 24 32 - - 1.4
28/07:30am 6.5 -1.4 6.2 98 0.1 W 37 50 20 27 - - 1.4
28/07:00am 6.6 -1.7 6.3 98 0.1 W 39 50 21 27 - - 1.4
28/06:30am 6.6 -1.7 6.3 98 0.1 WNW 39 56 21 30 - - 1.4
28/06:00am 6.7 -0.8 6.4 98 0.1 W 35 57 19 31 - - 1.4
28/05:31am 6.6 -0.3 6.3 98 0.1 W 32 50 17 27 - - 1.4
28/05:30am 6.7 -0.4 6.4 98 0.1 W 33 50 18 27 - - 1.4
28/05:00am 6.4 -0.8 6.0 97 0.2 W 33 54 18 29 - - 1.4
28/04:53am 6.3 -0.7 5.9 97 0.2 W 32 50 17 27 - - 1.4
28/04:30am 6.3 -0.3 5.9 97 0.2 W 30 44 16 24 - - 1.4
28/04:02am 6.3 -1.3 5.9 97 0.2 WNW 35 54 19 29 - - 1.4
28/04:00am 6.3 -1.3 5.9 97 0.2 WNW 35 52 19 28 - - 1.4
28/03:37am 6.4 -0.6 6.1 98 0.1 WNW 32 50 17 27 - - 1.4
28/03:30am 6.5 0.3 6.2 98 0.1 W 28 43 15 23 - - 1.4
28/03:00am 6.5 -1.0 6.2 98 0.1 W 35 54 19 29 - - 1.4
28/02:39am 6.5 -1.0 6.4 99 0.0 W 35 54 19 29 - - 1.4
28/02:30am 6.4 -1.9 6.3 99 0.0 W 39 54 21 29 - - 1.4
28/02:00am 6.8 -1.0 6.7 99 0.0 W 37 61 20 33 - - 1.4
28/01:30am 7.1 -0.2 7.0 99 0.0 W 35 54 19 29 - - 1.4
28/01:00am 7.2 -2.2 7.1 99 0.0 W 46 65 25 35 - - 1.4
28/12:30am 7.3 -2.1 7.2 99 0.0 W 46 65 25 35 - - 1.4
28/12:03am 7.4 -2.0 7.3 99 0.0 W 46 65 25 35 - - 1.4
28/12:00am 7.3 -2.5 7.2 99 0.0 WNW 48 65 26 35 - - 1.4
 
Date/Time
EST
Temp
°C
App
Temp
°C
Dew
Point
°C
Rel
Hum
%
Delta-T
°C
Wind Press
QNH
hPa
Press
MSL
hPa
Rain since
9am
mm
Dir  Spd
km/h
Gust
km/h
Spd
kts
Gust
kts
27/11:30pm 7.3 -2.1 7.2 99 0.0 WNW 46 74 25 40 - - 1.4
27/11:29pm 7.3 -2.1 7.2 99 0.0 WNW 46 74 25 40 - - 1.4
27/11:01pm 7.0 -0.7 6.9 99 0.0 W 37 56 20 30 - - 1.4
27/11:00pm 7.0 -1.1 6.9 99 0.0 W 39 56 21 30 - - 1.4

Other Formats:

Comma delimited format used in spreadsheet applications
http://www.bom.gov.au/fwo/IDT60801/IDT60801.94977.axf

JavaScript Object Notation format (JSON) in row-major order
http://www.bom.gov.au/fwo/IDT60801/IDT60801.94977.json